Data for 03/31/2010

Time Sea-Level Adjusted Pressure Absolute Pressure Temperature Relative Humidity Dew Point   
(mb) (inHg) (mb) (inHg) (C) (F) (%) (C) (F)
00:05 1003 29.62 833 24.6 -1 30.3 75 -4.8 23.3
00:10 1003 29.62 833 24.6 -0.9 30.4 71 -5.5 22
00:15 1003 29.62 833 24.6 -0.6 30.9 68 -5.8 21.5
00:20 1004 29.65 833 24.6 -0.6 31 70 -5.5 22.1
00:25 1004 29.65 833 24.6 -0.8 30.5 66 -6.3 20.6
00:30 1004 29.65 833 24.6 -0.7 30.8 67 -6.1 21.1
00:35 1004 29.65 833 24.6 -0.5 31.1 68 -5.8 21.6
00:40 1004 29.65 833 24.6 -0.5 31.1 70 -5.4 22.4
00:45 1004 29.65 833 24.6 -0.7 30.8 71 -5.2 22.6
00:50 1004 29.65 833 24.6 -0.8 30.6 77 -4.3 24.3
00:55 1004 29.65 833 24.6 -1 30.3 82 -3.7 25.3
01:00 1004 29.65 833 24.6 -1 30.2 81 -3.8 25.1
01:05 1004 29.65 833 24.6 -1 30.2 79 -4.2 24.4
01:10 1004 29.65 833 24.6 -1 30.2 78 -4.3 24.2
01:15 1004 29.65 833 24.6 -1 30.2 77 -4.4 24
01:20 1004 29.65 833 24.6 -0.9 30.3 78 -4.2 24.4
01:25 1004 29.65 833 24.6 -1 30.1 80 -4 24.7
01:30 1004 29.65 833 24.6 -1 30.2 80 -3.9 24.9
01:35 1004 29.65 834 24.63 -1.1 30.1 82 -3.8 25.1
01:40 1004 29.65 834 24.63 -1.1 30.1 82 -3.7 25.3
01:45 1005 29.68 834 24.63 -0.9 30.3 83 -3.4 25.8
01:50 1005 29.68 834 24.63 -1.1 30.1 85 -3.3 26
01:55 1005 29.68 834 24.63 -1 30.3 83 -3.5 25.7
02:00 1005 29.68 834 24.63 -0.9 30.3 83 -3.5 25.7
02:05 1005 29.68 834 24.63 -0.9 30.4 77 -4.4 24.2
02:10 1005 29.68 834 24.63 -0.6 30.9 72 -5.1 22.9
02:15 1005 29.68 834 24.63 -0.5 31 65 -6.4 20.5
02:20 1005 29.68 834 24.63 -0.6 31 65 -6.3 20.7
02:25 1005 29.68 834 24.63 -1 30.3 72 -5.4 22.4
02:30 1005 29.68 834 24.63 -1.3 29.7 72 -5.6 21.9
02:35 1005 29.68 834 24.63 -1.5 29.3 75 -5.4 22.3
02:40 1005 29.68 834 24.63 -1.6 29.1 73 -5.8 21.5
02:45 1005 29.68 834 24.63 -1.7 29 73 -5.9 21.3
02:50 1005 29.68 834 24.63 -1.6 29.1 71 -6.2 20.9
02:55 1005 29.68 834 24.63 -1.5 29.4 69 -6.5 20.4
03:00 1005 29.68 835 24.66 -0.9 30.3 58 -8.2 17.2
03:05 1006 29.71 835 24.66 -0.4 31.2 60 -7.3 18.8
03:10 1006 29.71 835 24.66 -0.5 31.1 65 -6.4 20.5
03:15 1006 29.71 835 24.66 -0.8 30.6 71 -5.5 22.1
03:20 1006 29.71 835 24.66 -0.9 30.3 75 -4.8 23.3
03:25 1006 29.71 835 24.66 -1 30.2 77 -4.5 23.8
03:30 1006 29.71 835 24.66 -1 30.2 77 -4.5 23.9
03:35 1006 29.71 835 24.66 -1 30.3 77 -4.5 23.9
03:40 1006 29.71 836 24.69 -1 30.3 78 -4.4 24.1
03:45 1006 29.71 836 24.69 -1 30.2 78 -4.3 24.3
03:50 1006 29.71 836 24.69 -1 30.2 79 -4.3 24.3
03:55 1006 29.71 836 24.69 -1 30.2 79 -4.1 24.5
04:00 1007 29.74 836 24.69 -1 30.1 82 -3.7 25.4
04:05 1007 29.74 836 24.69 -1.1 30 81 -3.9 24.9
04:10 1007 29.74 836 24.69 -1.1 30 82 -3.8 25.2
04:15 1007 29.74 836 24.69 -1.2 29.9 82 -3.8 25.2
04:20 1007 29.74 836 24.69 -1.2 29.8 83 -3.8 25.2
04:25 1007 29.74 836 24.69 -1.3 29.6 83 -3.8 25.1
04:30 1007 29.74 836 24.69 -1.3 29.6 83 -3.8 25.1
04:35 1007 29.74 836 24.69 -1.5 29.2 85 -3.8 25.2
04:40 1007 29.74 836 24.69 -1.8 28.7 84 -4.1 24.6
04:45 1007 29.74 836 24.69 -1.8 28.7 84 -4.1 24.6
04:50 1007 29.74 836 24.69 -1.8 28.9 85 -4 24.8
04:55 1007 29.74 836 24.69 -1.7 28.9 86 -3.8 25.1
05:00 1007 29.74 836 24.69 -2 28.5 86 -4 24.7
05:05 1007 29.74 836 24.69 -1.9 28.5 85 -4.1 24.6
05:10 1007 29.74 836 24.69 -1.9 28.5 85 -4.1 24.6
05:15 1007 29.74 836 24.69 -1.8 28.7 85 -4.1 24.6
05:20 1007 29.74 836 24.69 -1.9 28.5 86 -4 24.8
05:25 1007 29.74 836 24.69 -2 28.4 82 -4.7 23.6
05:30 1007 29.74 836 24.69 -2 28.4 82 -4.6 23.7
05:35 1007 29.74 836 24.69 -2 28.4 83 -4.6 23.8
05:40 1007 29.74 836 24.69 -1.9 28.6 82 -4.6 23.7
05:45 1007 29.74 837 24.72 -1.8 28.8 82 -4.5 24
05:50 1007 29.74 837 24.72 -1.9 28.6 82 -4.5 23.8
05:55 1007 29.74 837 24.72 -2.1 28.3 82 -4.8 23.4
06:00 1007 29.74 837 24.72 -2.2 28.1 79 -5.4 22.3
06:05 1007 29.74 837 24.72 -2.2 28 77 -5.6 21.9
06:10 1007 29.74 837 24.72 -2.2 28.1 79 -5.4 22.3
06:15 1007 29.74 837 24.72 -2.5 27.6 80 -5.4 22.2
06:20 1007 29.74 837 24.72 -2.6 27.4 81 -5.5 22.1
06:25 1007 29.74 837 24.72 -2.6 27.4 80 -5.5 22.1
06:30 1008 29.77 837 24.72 -2.6 27.3 81 -5.4 22.2
06:35 1008 29.77 837 24.72 -2.7 27.1 82 -5.4 22.3
06:40 1008 29.77 837 24.72 -2.7 27.1 81 -5.5 22.1
06:45 1008 29.77 837 24.72 -2.7 27.1 81 -5.5 22.1
06:50 1008 29.77 837 24.72 -3 26.5 83 -5.6 22
06:55 1008 29.77 837 24.72 -3.3 26.1 83 -5.8 21.5
07:00 1008 29.77 837 24.72 -3.4 25.8 82 -6.1 21
07:05 1008 29.77 837 24.72 -3.5 25.7 83 -6 21.1
07:10 1008 29.77 837 24.72 -3.8 25.3 83 -6.3 20.7
07:15 1008 29.77 837 24.72 -3.9 25 83 -6.4 20.5
07:20 1008 29.77 837 24.72 -4 24.8 82 -6.7 19.9
07:25 1008 29.77 837 24.72 -4 24.8 80 -6.9 19.6
07:30 1008 29.77 837 24.72 -4 24.7 80 -7.1 19.3
07:35 1008 29.77 837 24.72 -3.7 25.3 79 -6.9 19.7
07:40 1008 29.77 838 24.75 -3.7 25.3 78 -7 19.4
07:45 1008 29.77 837 24.72 -3.5 25.7 77 -7 19.4
07:50 1008 29.77 838 24.75 -3.4 25.9 76 -7.1 19.2
07:55 1008 29.77 838 24.75 -3.2 26.3 75 -7 19.4
08:00 1008 29.77 838 24.75 -3.2 26.3 75 -7 19.3
08:05 1008 29.77 838 24.75 -3.3 26 75 -7.2 19.1
08:10 1008 29.77 838 24.75 -3.2 26.2 74 -7.2 19
08:15 1008 29.77 838 24.75 -3 26.5 73 -7.3 18.9
08:20 1008 29.77 838 24.75 -3.1 26.3 75 -7 19.4
08:25 1008 29.77 838 24.75 -3.2 26.2 74 -7.2 19
08:30 1008 29.77 838 24.75 -3.4 25.9 77 -6.9 19.5
08:35 1008 29.77 838 24.75 -3.5 25.7 76 -7.2 19
08:40 1008 29.77 838 24.75 -3.3 26 73 -7.6 18.4
08:45 1008 29.77 838 24.75 -2.8 27 72 -7.2 19
08:50 1009 29.8 838 24.75 -2.1 28.3 71 -6.6 20.1
08:55 1009 29.8 838 24.75 -1.4 29.4 70 -6.3 20.7
09:00 1009 29.8 838 24.75 -1.2 29.8 69 -6.1 21
09:05 1009 29.8 838 24.75 -1.2 29.8 69 -6.2 20.9
09:10 1009 29.8 838 24.75 -0.9 30.4 67 -6.2 20.8
09:15 1009 29.8 838 24.75 -0.3 31.4 67 -5.8 21.6
09:20 1009 29.8 838 24.75 -0.5 31.1 65 -6.2 20.8
09:25 1009 29.8 838 24.75 -0.5 31.1 65 -6.4 20.5
09:30 1009 29.8 838 24.75 0.1 32.1 62 -6.4 20.4
09:35 1009 29.8 838 24.75 0.6 33 62 -5.9 21.3
09:40 1009 29.8 838 24.75 0 32 63 -6.3 20.6
09:45 1009 29.8 838 24.75 0.7 33.3 59 -6.4 20.5
09:50 1009 29.8 838 24.75 1.2 34.1 56 -6.7 20
09:55 1009 29.8 838 24.75 1.8 35.2 55 -6.4 20.5
10:00 1009 29.8 838 24.75 2.5 36.6 54 -5.9 21.4
10:05 1009 29.8 838 24.75 2.1 35.9 57 -5.6 21.9
10:10 1009 29.8 838 24.75 2 35.7 57 -5.6 21.9
10:15 1009 29.8 838 24.75 1.6 34.8 56 -6.2 20.8
10:20 1009 29.8 838 24.75 1.5 34.7 57 -6.1 20.9
10:25 1009 29.8 838 24.75 1.1 34 59 -6.1 21
10:30 1009 29.8 838 24.75 1.3 34.4 51 -7.7 18.1
10:35 1009 29.8 838 24.75 1.7 35 50 -7.7 18.1
10:40 1009 29.8 838 24.75 2.3 36.2 50 -7 19.4
10:45 1009 29.8 838 24.75 3 37.3 45 -7.8 17.9
10:50 1009 29.8 838 24.75 3.7 38.7 43 -7.9 17.8
10:55 1009 29.8 838 24.75 3.6 38.4 44 -7.7 18.1
11:00 1009 29.8 838 24.75 2.8 37 44 -8.3 17
11:05 1009 29.8 838 24.75 2.7 36.9 48 -7.1 19.3
11:10 1009 29.8 838 24.75 2 35.5 50 -7.4 18.8
11:15 1009 29.8 838 24.75 2.9 37.3 46 -7.7 18.2
11:20 1009 29.8 838 24.75 3.2 37.7 46 -7.4 18.6
11:25 1009 29.8 838 24.75 3.8 38.9 46 -6.8 19.7
11:30 1009 29.8 838 24.75 3.2 37.7 47 -6.9 19.5
11:35 1009 29.8 838 24.75 3.3 38 51 -5.8 21.5
11:40 1009 29.8 838 24.75 2.7 36.9 45 -8.1 17.5
11:45 1009 29.8 838 24.75 2.1 35.8 51 -7 19.4
11:50 1009 29.8 838 24.75 2 35.5 48 -8 17.7
11:55 1009 29.8 838 24.75 2 35.6 49 -7.5 18.4
12:00 1009 29.8 838 24.75 2.8 37.1 46 -7.8 17.9
12:05 1009 29.8 838 24.75 3.2 37.7 47 -7.1 19.2
12:10 1009 29.8 838 24.75 3.6 38.5 45 -7.4 18.7
12:15 1009 29.8 838 24.75 4.6 40.3 41 -7.5 18.5
12:20 1009 29.8 838 24.75 4.7 40.5 39 -8 17.5
12:25 1009 29.8 838 24.75 3.8 38.9 39 -8.7 16.3
12:30 1009 29.8 838 24.75 4.3 39.8 40 -8.3 17.1
12:35 1009 29.8 838 24.75 3.5 38.4 41 -8.4 16.9
12:40 1009 29.8 838 24.75 4.2 39.6 41 -7.9 17.7
12:45 1009 29.8 838 24.75 5.2 41.4 35 -8.9 16
12:50 1009 29.8 838 24.75 5.3 41.6 36 -8.5 16.8
12:55 1009 29.8 838 24.75 5.6 42.1 33 -9.6 14.7
13:00 1009 29.8 838 24.75 5.3 41.5 35 -8.8 16.1
13:05 1009 29.8 838 24.75 5.1 41.3 35 -9.2 15.4
13:10 1009 29.8 838 24.75 5.5 41.9 32 -9.9 14.2
13:15 1009 29.8 838 24.75 5.1 41.2 33 -9.7 14.5
13:20 1008 29.77 838 24.75 5 41 33 -10 14
13:25 1008 29.77 838 24.75 5.4 41.7 31 -10.4 13.2
13:30 1008 29.77 838 24.75 5.7 42.2 29 -11.2 11.9
13:35 1008 29.77 838 24.75 4.9 40.8 32 -10.6 12.9
13:40 1008 29.77 838 24.75 4.9 40.7 29 -11.6 11.1
13:45 1008 29.77 837 24.72 4.8 40.6 30 -11.5 11.3
13:50 1008 29.77 837 24.72 5 41 31 -10.8 12.5
13:55 1008 29.77 837 24.72 5.5 41.9 30 -10.8 12.6
14:00 1008 29.77 837 24.72 5.7 42.3 30 -10.5 13.1
14:05 1008 29.77 837 24.72 6 42.7 31 -9.8 14.4
14:10 1008 29.77 837 24.72 6.4 43.5 30 -9.8 14.3
14:15 1008 29.77 837 24.72 6.5 43.6 29 -10.5 13.1
14:20 1008 29.77 837 24.72 5.7 42.3 28 -11.2 11.8
14:25 1008 29.77 837 24.72 5.2 41.3 33 -9.9 14.1
14:30 1008 29.77 837 24.72 5.3 41.5 28 -11.6 11.1
14:35 1008 29.77 837 24.72 4.3 39.7 37 -9.1 15.6
14:40 1008 29.77 837 24.72 4.1 39.5 34 -10.5 13.1
14:45 1008 29.77 837 24.72 3.8 38.9 34 -10.7 12.8
14:50 1008 29.77 837 24.72 3.6 38.6 34 -10.7 12.8
14:55 1008 29.77 837 24.72 4 39.2 36 -9.7 14.5
15:00 1008 29.77 837 24.72 3.4 38.2 35 -10.6 12.8
15:05 1008 29.77 837 24.72 3.2 37.8 39 -9.4 15.1
15:10 1008 29.77 837 24.72 3.3 38 35 -10.6 12.9
15:15 1008 29.77 837 24.72 3.7 38.6 37 -9.7 14.5
15:20 1008 29.77 837 24.72 3.8 38.9 36 -9.8 14.3
15:25 1008 29.77 837 24.72 3.8 38.8 32 -11.3 11.7
15:30 1008 29.77 837 24.72 3.9 39.1 33 -11 12.2
15:35 1008 29.77 837 24.72 4.1 39.4 33 -10.9 12.4
15:40 1008 29.77 837 24.72 4.9 40.8 30 -11.2 11.8
15:45 1008 29.77 837 24.72 5.5 42 29 -11 12.3
15:50 1008 29.77 837 24.72 4.7 40.4 28 -12.5 9.6
15:55 1007 29.74 837 24.72 4.4 39.9 33 -10.4 13.2
16:00 1007 29.74 837 24.72 4.7 40.5 30 -11.4 11.5
16:05 1007 29.74 837 24.72 5.1 41.1 26 -13.2 8.3
16:10 1007 29.74 837 24.72 5.2 41.4 25 -13.2 8.3
16:15 1007 29.74 837 24.72 4.7 40.5 28 -12.4 9.6
16:20 1007 29.74 837 24.72 4.7 40.5 25 -14 6.8
16:25 1007 29.74 837 24.72 4.6 40.3 28 -12.2 10
16:30 1007 29.74 837 24.72 4.2 39.6 28 -12.7 9.1
16:35 1007 29.74 837 24.72 4.3 39.8 26 -13.7 7.4
16:40 1007 29.74 837 24.72 4.2 39.6 28 -12.7 9.2
16:45 1007 29.74 837 24.72 4.7 40.4 30 -11.5 11.3
16:50 1008 29.77 837 24.72 4.4 40 30 -11.5 11.3
16:55 1008 29.77 837 24.72 4.4 39.9 30 -11.9 10.5
17:00 1007 29.74 837 24.72 4.1 39.3 32 -11.1 12
17:05 1007 29.74 837 24.72 3.7 38.7 33 -11.1 12
17:10 1008 29.77 837 24.72 3.8 38.8 31 -11.7 11
17:15 1008 29.77 837 24.72 4.1 39.3 32 -11.2 11.8
17:20 1008 29.77 837 24.72 3.9 39.1 37 -9.6 14.8
17:25 1007 29.74 837 24.72 4 39.2 37 -9.6 14.8
17:30 1008 29.77 837 24.72 4.1 39.5 32 -10.9 12.3
17:35 1008 29.77 837 24.72 3.7 38.7 34 -10.9 12.4
17:40 1008 29.77 837 24.72 3.6 38.6 32 -11.7 10.9
17:45 1008 29.77 837 24.72 3.5 38.4 37 -9.9 14.2
17:50 1008 29.77 837 24.72 3.5 38.3 36 -10.3 13.5
17:55 1008 29.77 837 24.72 3.3 38 37 -9.9 14.1
18:00 1008 29.77 837 24.72 3.1 37.6 39 -9.5 14.9
18:05 1008 29.77 837 24.72 3.2 37.8 40 -9.2 15.4
18:10 1008 29.77 837 24.72 3.2 37.7 40 -9 15.8
18:15 1008 29.77 837 24.72 3.1 37.6 39 -9.5 14.8
18:20 1008 29.77 837 24.72 3 37.5 42 -8.7 16.4
18:25 1008 29.77 837 24.72 3.1 37.6 43 -8.4 16.9
18:30 1008 29.77 837 24.72 3 37.5 43 -8.5 16.7
18:35 1008 29.77 837 24.72 3.1 37.5 43 -8.4 16.8
18:40 1007 29.74 837 24.72 2.9 37.3 45 -7.8 17.9
18:45 1007 29.74 837 24.72 2.9 37.2 46 -7.6 18.3
18:50 1007 29.74 837 24.72 3 37.4 45 -7.9 17.9
18:55 1007 29.74 837 24.72 2.8 37 44 -8.2 17.2
19:00 1008 29.77 837 24.72 2.7 36.9 47 -7.6 18.4
19:05 1008 29.77 837 24.72 2.8 37 45 -7.9 17.7
19:10 1008 29.77 837 24.72 2.6 36.6 48 -7.3 18.9
19:15 1008 29.77 837 24.72 2.5 36.5 49 -7.1 19.2
19:20 1008 29.77 837 24.72 2.4 36.4 50 -7 19.3
19:25 1008 29.77 837 24.72 2.4 36.3 50 -6.9 19.6
19:30 1007 29.74 837 24.72 2.4 36.2 49 -7.2 19.1
19:35 1007 29.74 837 24.72 2.3 36.1 49 -7.4 18.6
19:40 1007 29.74 837 24.72 2.2 36 49 -7.5 18.5
19:45 1007 29.74 837 24.72 2.1 35.8 51 -7 19.4
19:50 1007 29.74 837 24.72 2 35.6 55 -6.2 20.9
19:55 1008 29.77 837 24.72 1.8 35.2 58 -5.5 22
20:00 1008 29.77 837 24.72 1.7 35 57 -5.8 21.5
20:05 1008 29.77 837 24.72 1.5 34.8 57 -6.1 21
20:10 1008 29.77 837 24.72 1.4 34.5 56 -6.3 20.6
20:15 1008 29.77 837 24.72 1.3 34.3 57 -6.2 20.8
20:20 1008 29.77 837 24.72 1.2 34.2 58 -6.1 21.1
20:25 1008 29.77 837 24.72 1.3 34.4 59 -5.8 21.5
20:30 1008 29.77 837 24.72 1.5 34.7 60 -5.4 22.2
20:35 1008 29.77 837 24.72 1 33.9 63 -5.2 22.6
20:40 1008 29.77 837 24.72 0.8 33.4 66 -4.8 23.4
20:45 1008 29.77 837 24.72 0.5 33 65 -5.2 22.6
20:50 1008 29.77 837 24.72 0.5 32.9 67 -5 23.1
20:55 1008 29.77 837 24.72 0.4 32.8 68 -4.9 23.2
21:00 1008 29.77 837 24.72 0.7 33.3 67 -4.8 23.4
21:05 1008 29.77 837 24.72 0.6 33.1 69 -4.5 24
21:10 1008 29.77 837 24.72 0.5 32.9 69 -4.6 23.7
21:15 1008 29.77 837 24.72 0.3 32.6 69 -4.7 23.6
21:20 1008 29.77 837 24.72 0.2 32.4 68 -5 23
21:25 1008 29.77 837 24.72 0.3 32.6 68 -4.9 23.1
21:30 1008 29.77 837 24.72 0.3 32.6 67 -5 22.9
21:35 1008 29.77 837 24.72 0.1 32.2 69 -4.9 23.1
21:40 1008 29.77 838 24.75 0.1 32.1 69 -5 23.1
21:45 1008 29.77 838 24.75 0.3 32.5 69 -4.7 23.6
21:50 1008 29.77 838 24.75 0.2 32.4 70 -4.7 23.6
21:55 1008 29.77 838 24.75 -0.1 31.8 71 -4.7 23.6
22:00 1008 29.77 838 24.75 -0.2 31.6 69 -5.1 22.8
22:05 1008 29.77 838 24.75 -0.5 31.1 71 -5.2 22.6
22:10 1008 29.77 838 24.75 -0.6 31 69 -5.5 22.1
22:15 1008 29.77 838 24.75 -0.6 30.9 71 -5.3 22.4
22:20 1008 29.77 838 24.75 -0.6 30.8 70 -5.4 22.3
22:25 1008 29.77 838 24.75 -0.6 30.8 71 -5.3 22.5
22:30 1008 29.77 837 24.72 -0.7 30.8 71 -5.3 22.4
22:35 1008 29.77 838 24.75 -0.7 30.8 71 -5.3 22.4
22:40 1008 29.77 838 24.75 -0.7 30.8 70 -5.6 22
22:45 1008 29.77 838 24.75 -0.7 30.7 70 -5.5 22.2
22:50 1008 29.77 838 24.75 -0.8 30.6 71 -5.5 22.1
22:55 1008 29.77 838 24.75 -0.7 30.7 70 -5.6 21.9
23:00 1008 29.77 838 24.75 -0.7 30.8 69 -5.7 21.7
23:05 1008 29.77 838 24.75 -0.5 31.1 68 -5.7 21.8
23:10 1008 29.77 838 24.75 -0.4 31.3 69 -5.5 22.1
23:15 1008 29.77 838 24.75 -0.5 31.1 68 -5.6 21.9
23:20 1008 29.77 838 24.75 -0.6 31 69 -5.5 22
23:25 1008 29.77 838 24.75 -0.6 31 69 -5.6 22
23:30 1008 29.77 838 24.75 -0.5 31.1 68 -5.7 21.8
23:35 1008 29.77 837 24.72 -0.4 31.3 68 -5.6 21.9
23:40 1008 29.77 837 24.72 -0.6 30.9 69 -5.7 21.8
23:45 1008 29.77 838 24.75 -0.6 30.9 70 -5.4 22.3
23:50 1008 29.77 838 24.75 -0.7 30.7 71 -5.3 22.4
23:55 1008 29.77 838 24.75 -0.9 30.5 72 -5.2 22.6
24:00 1008 29.77 838 24.75 -0.9 30.3 73 -5.1 22.8